Time;durP1;ratioP1;P1;durP2;ratioP2;P2;SDS_P1;SDS_P2;PMS_P1;PMS_P2;Temp;Humidity;BMP_temperature;BMP_pressure;BME280_temperature;BME280_humidity;BME280_pressure;Samples;Min_cycle;Max_cycle;Signal;HPM_P1;HPM_P2
2022/10/18 00:00:22;;;;;;;10.87;6.60;;;17.60;99.90;;;;;;10387632;28;20704;-73
2022/10/18 00:05:23;;;;;;;9.63;6.10;;;17.60;99.90;;;;;;10384659;28;20201;-74
2022/10/18 00:10:23;;;;;;;11.50;6.60;;;17.60;99.90;;;;;;10396352;28;20641;-71
2022/10/18 00:15:24;;;;;;;9.57;6.43;;;17.60;99.90;;;;;;10398919;28;20220;-74
2022/10/18 00:20:25;;;;;;;8.33;6.23;;;17.70;99.90;;;;;;10406924;28;20246;-72
2022/10/18 00:25:25;;;;;;;14.13;6.60;;;17.60;99.90;;;;;;10405485;28;20691;-74
2022/10/18 00:30:26;;;;;;;8.53;6.50;;;17.60;99.90;;;;;;10400145;28;20715;-72
2022/10/18 00:35:26;;;;;;;8.93;6.60;;;17.60;99.90;;;;;;10399015;28;20247;-72
2022/10/18 00:40:27;;;;;;;9.33;6.60;;;17.60;99.90;;;;;;10399964;28;20218;-72
2022/10/18 00:45:28;;;;;;;11.73;7.00;;;17.70;99.90;;;;;;10399102;28;20218;-73
2022/10/18 00:50:32;;;;;;;11.00;7.70;;;17.60;99.90;;;;;;10399701;28;20225;-72
2022/10/18 00:55:33;;;;;;;13.27;8.33;;;17.60;99.90;;;;;;10400062;28;20217;-73
2022/10/18 01:00:37;;;;;;;17.43;9.63;;;17.60;99.90;;;;;;10398837;28;20210;-73
2022/10/18 01:05:46;;;;;;;12.40;8.13;;;17.60;99.90;;;;;;10401572;28;20222;-72
2022/10/18 01:11:10;;;;;;;12.40;6.80;;;17.60;99.90;;;;;;10409140;28;20228;-72
2022/10/18 01:16:25;;;;;;;13.60;6.60;;;17.60;99.90;;;;;;10398069;28;20231;-73
2022/10/18 01:21:45;;;;;;;9.23;6.27;;;17.70;99.90;;;;;;10403073;28;20220;-73
2022/10/18 01:27:11;;;;;;;9.63;6.63;;;17.80;99.90;;;;;;10389415;28;20221;-72
2022/10/18 01:32:35;;;;;;;9.43;6.07;;;17.80;99.90;;;;;;10389659;28;20643;-72
2022/10/18 01:37:38;;;;;;;19.03;6.37;;;17.80;99.90;;;;;;10387950;28;20636;-72
2022/10/18 01:42:39;;;;;;;6.43;5.23;;;17.80;99.90;;;;;;10395859;28;20215;-73
2022/10/18 01:47:45;;;;;;;8.93;5.83;;;17.80;99.90;;;;;;10392100;28;20222;-72
2022/10/18 01:52:50;;;;;;;15.00;7.77;;;17.80;99.90;;;;;;10387601;28;20319;-72
2022/10/18 01:58:03;;;;;;;9.37;6.90;;;17.80;99.90;;;;;;10394151;28;20212;-73
2022/10/18 02:03:22;;;;;;;9.53;6.47;;;17.70;99.90;;;;;;10387526;28;20765;-73
2022/10/18 02:08:43;;;;;;;9.53;7.67;;;17.60;99.90;;;;;;10397100;28;20228;-73
2022/10/18 02:13:55;;;;;;;11.13;7.30;;;17.40;99.90;;;;;;10394338;28;20531;-73
2022/10/18 02:19:04;;;;;;;13.20;7.37;;;17.20;99.90;;;;;;10386633;28;20224;-74
2022/10/18 02:24:06;;;;;;;15.80;7.47;;;17.10;99.90;;;;;;10393036;28;20218;-73
2022/10/18 02:29:08;;;;;;;12.33;7.13;;;16.90;99.90;;;;;;10394624;28;20221;-73
2022/10/18 02:34:29;;;;;;;13.83;6.83;;;16.80;99.90;;;;;;10391496;28;20224;-72
2022/10/18 02:39:34;;;;;;;9.03;6.77;;;16.60;99.90;;;;;;10389292;28;20614;-72
2022/10/18 02:44:35;;;;;;;8.97;6.77;;;16.70;99.90;;;;;;10389810;28;20229;-72
2022/10/18 02:49:35;;;;;;;9.17;7.20;;;16.70;99.90;;;;;;10389313;28;20217;-71
2022/10/18 02:54:36;;;;;;;9.40;6.80;;;16.70;99.90;;;;;;10387898;28;20237;-73
2022/10/18 02:59:36;;;;;;;10.40;6.80;;;16.70;99.90;;;;;;10390429;28;20232;-73
2022/10/18 03:04:37;;;;;;;11.73;6.23;;;16.80;99.90;;;;;;10387189;28;20312;-72
2022/10/18 03:09:37;;;;;;;9.60;6.50;;;16.80;99.90;;;;;;10392029;28;20648;-72
2022/10/18 03:14:38;;;;;;;9.87;6.13;;;16.80;99.90;;;;;;10395020;28;20233;-72
2022/10/18 03:19:38;;;;;;;17.83;6.67;;;16.90;99.90;;;;;;10386794;28;20229;-72
2022/10/18 03:24:39;;;;;;;11.90;7.30;;;16.90;99.90;;;;;;10386001;28;20214;-71
2022/10/18 03:29:39;;;;;;;18.27;8.70;;;16.90;99.90;;;;;;10388083;28;20814;-72
2022/10/18 03:34:40;;;;;;;14.33;8.83;;;16.90;99.90;;;;;;10386751;28;20216;-71
2022/10/18 03:39:40;;;;;;;10.87;8.20;;;17.00;99.90;;;;;;10389743;28;20224;-71
2022/10/18 03:44:41;;;;;;;16.47;7.80;;;17.00;99.90;;;;;;10383484;28;20274;-70
2022/10/18 03:49:42;;;;;;;9.53;7.77;;;16.90;99.90;;;;;;10390763;28;20220;-70
2022/10/18 03:54:42;;;;;;;10.87;7.30;;;16.80;99.90;;;;;;10384316;28;20213;-71
2022/10/18 03:59:43;;;;;;;15.97;8.97;;;16.90;99.90;;;;;;10388719;28;20228;-73
2022/10/18 04:04:43;;;;;;;12.27;8.57;;;16.90;99.90;;;;;;10389555;28;20225;-72
2022/10/18 04:09:44;;;;;;;11.80;7.93;;;16.80;99.90;;;;;;10384405;28;20230;-72
2022/10/18 04:14:44;;;;;;;12.97;8.27;;;16.80;99.90;;;;;;10388670;28;20216;-72
2022/10/18 04:19:45;;;;;;;13.03;8.73;;;16.80;99.90;;;;;;10384545;28;20213;-72
2022/10/18 04:24:45;;;;;;;12.03;9.20;;;16.90;99.90;;;;;;10389801;28;20238;-73
2022/10/18 04:29:46;;;;;;;10.83;7.77;;;17.00;99.90;;;;;;10388309;28;20225;-73
2022/10/18 04:34:46;;;;;;;8.90;8.00;;;17.00;99.90;;;;;;10389113;28;20223;-68
2022/10/18 04:39:47;;;;;;;13.13;8.73;;;17.00;99.90;;;;;;10394853;28;20240;-67
2022/10/18 04:44:48;;;;;;;13.53;7.60;;;17.00;99.90;;;;;;10382612;28;20223;-68
2022/10/18 04:49:49;;;;;;;13.80;8.00;;;17.00;99.90;;;;;;10388031;28;20228;-68
2022/10/18 04:54:49;;;;;;;15.57;8.63;;;16.90;99.90;;;;;;10382705;28;20214;-66
2022/10/18 04:59:50;;;;;;;12.37;8.60;;;16.80;99.90;;;;;;10392412;28;20384;-67
2022/10/18 05:04:50;;;;;;;11.73;8.50;;;16.90;99.90;;;;;;10400477;28;20217;-67
2022/10/18 05:09:51;;;;;;;14.00;8.60;;;16.90;99.90;;;;;;10396522;28;20225;-67
2022/10/18 05:14:52;;;;;;;15.73;8.80;;;16.90;99.90;;;;;;10389220;28;20777;-66
2022/10/18 05:19:52;;;;;;;13.93;8.50;;;16.90;99.90;;;;;;10395196;28;20228;-66
2022/10/18 05:24:53;;;;;;;15.73;9.53;;;16.90;99.90;;;;;;10389011;28;20217;-72
2022/10/18 05:29:53;;;;;;;12.60;9.00;;;16.80;99.90;;;;;;10388148;28;20225;-71
2022/10/18 05:34:54;;;;;;;12.07;9.07;;;16.70;99.90;;;;;;10394150;28;20299;-72
2022/10/18 05:39:54;;;;;;;12.73;10.53;;;16.70;99.90;;;;;;10388099;28;20252;-72
2022/10/18 05:44:55;;;;;;;17.40;11.03;;;16.80;99.90;;;;;;10394611;28;20216;-71
2022/10/18 05:49:55;;;;;;;19.03;12.03;;;16.80;99.90;;;;;;10395224;28;20229;-72
2022/10/18 05:54:56;;;;;;;14.27;11.57;;;16.90;99.90;;;;;;10392067;28;20208;-72
2022/10/18 05:59:57;;;;;;;16.33;12.43;;;16.90;99.90;;;;;;10395876;28;20926;-71
2022/10/18 06:04:57;;;;;;;24.33;12.20;;;16.90;99.90;;;;;;10398927;28;20236;-71
2022/10/18 06:09:58;;;;;;;15.63;10.40;;;16.90;99.90;;;;;;10385820;28;20228;-72
2022/10/18 06:14:58;;;;;;;11.33;9.80;;;17.00;99.90;;;;;;10393768;28;20684;-72
2022/10/18 06:19:59;;;;;;;12.40;9.97;;;17.10;99.90;;;;;;10385849;28;20228;-71
2022/10/18 06:24:59;;;;;;;12.83;8.77;;;17.10;99.90;;;;;;10402772;28;20570;-72
2022/10/18 06:30:00;;;;;;;12.67;8.27;;;17.10;99.90;;;;;;10386649;28;20229;-72
2022/10/18 06:35:00;;;;;;;10.97;8.17;;;17.00;99.90;;;;;;10385493;28;20272;-72
2022/10/18 06:40:01;;;;;;;13.93;9.10;;;17.00;99.90;;;;;;10391119;28;20213;-71
2022/10/18 06:45:02;;;;;;;9.30;8.20;;;17.10;99.90;;;;;;10392330;28;20309;-72
2022/10/18 06:50:02;;;;;;;14.53;9.50;;;17.10;99.90;;;;;;10383894;28;20230;-71
2022/10/18 06:55:03;;;;;;;13.53;9.27;;;17.20;99.90;;;;;;10391969;28;20218;-72
2022/10/18 07:00:04;;;;;;;13.60;8.87;;;17.20;99.90;;;;;;10384509;28;20230;-72
2022/10/18 07:05:09;;;;;;;12.20;8.40;;;17.20;99.90;;;;;;10433993;28;20239;-72
2022/10/18 07:10:09;;;;;;;14.27;9.47;;;17.10;99.90;;;;;;10385164;28;20214;-71
2022/10/18 07:15:13;;;;;;;16.50;9.50;;;17.20;99.90;;;;;;10394982;28;20209;-71
2022/10/18 07:20:13;;;;;;;15.63;8.83;;;17.30;99.90;;;;;;10385446;28;20188;-71
2022/10/18 07:25:14;;;;;;;10.20;7.87;;;17.40;99.90;;;;;;10388531;28;20550;-71
2022/10/18 07:30:15;;;;;;;16.10;9.30;;;17.60;99.90;;;;;;10385929;28;20841;-72
2022/10/18 07:35:15;;;;;;;17.20;9.90;;;17.60;99.90;;;;;;10388521;28;20621;-72
2022/10/18 07:40:16;;;;;;;14.33;8.30;;;17.80;99.90;;;;;;10384913;28;20185;-72
2022/10/18 07:45:16;;;;;;;10.70;7.93;;;18.00;99.90;;;;;;10393191;28;20180;-72
2022/10/18 07:50:17;;;;;;;10.63;7.83;;;18.20;99.90;;;;;;10389263;28;20275;-72
2022/10/18 07:55:17;;;;;;;8.40;6.70;;;18.70;99.90;;;;;;10390156;28;20222;-72
2022/10/18 08:00:18;;;;;;;11.40;7.70;;;19.10;99.90;;;;;;10387608;28;20236;-71
2022/10/18 08:05:18;;;;;;;15.07;7.97;;;19.40;99.90;;;;;;10389716;28;20287;-72
2022/10/18 08:10:21;;;;;;;12.77;7.40;;;20.00;99.90;;;;;;10383974;28;20283;-71
2022/10/18 08:15:24;;;;;;;11.53;7.63;;;20.10;99.90;;;;;;10385365;28;20212;-72
2022/10/18 08:20:25;;;;;;;8.57;7.67;;;19.90;99.90;;;;;;10384727;28;20279;-71
2022/10/18 08:25:25;;;;;;;11.50;7.47;;;20.00;99.90;;;;;;10386468;28;20334;-72
2022/10/18 08:30:26;;;;;;;9.07;7.03;;;20.60;99.90;;;;;;10388901;28;20284;-72
2022/10/18 08:35:26;;;;;;;10.07;7.20;;;20.90;99.90;;;;;;10391019;28;20302;-72
2022/10/18 08:40:27;;;;;;;27.93;8.33;;;22.20;99.90;;;;;;10391632;28;20219;-72
2022/10/18 08:45:28;;;;;;;13.80;6.90;;;23.70;99.90;;;;;;10401362;28;20239;-72
2022/10/18 08:50:39;;;;;;;14.97;6.07;;;25.00;99.90;;;;;;10394691;28;20231;-71
2022/10/18 08:55:53;;;;;;;14.83;7.37;;;26.70;99.90;;;;;;10392451;28;20214;-72
2022/10/18 09:01:09;;;;;;;16.80;6.90;;;26.20;99.90;;;;;;10404493;28;20222;-73
2022/10/18 09:06:39;;;;;;;10.67;7.20;;;24.70;99.90;;;;;;10390617;28;20240;-71
2022/10/18 09:11:54;;;;;;;17.60;7.90;;;23.20;99.90;;;;;;10391580;28;20243;-71
2022/10/18 09:17:12;;;;;;;13.87;7.70;;;22.10;99.90;;;;;;10396238;28;20223;-71
2022/10/18 09:22:17;;;;;;;8.87;6.57;;;21.60;99.90;;;;;;10398442;28;20264;-71
2022/10/18 09:27:21;;;;;;;7.43;6.60;;;21.40;99.90;;;;;;10396721;28;20570;-72
2022/10/18 09:32:48;;;;;;;9.60;7.53;;;21.20;99.90;;;;;;10392347;28;20800;-71
2022/10/18 09:37:52;;;;;;;13.50;8.30;;;20.80;99.90;;;;;;10394602;28;20229;-71
2022/10/18 09:43:07;;;;;;;9.07;8.07;;;20.40;99.90;;;;;;10387859;28;20852;-71
2022/10/18 09:48:27;;;;;;;9.70;7.10;;;20.10;99.90;;;;;;10392843;28;20226;-72
2022/10/18 09:53:50;;;;;;;10.70;6.53;;;20.00;99.90;;;;;;10391187;28;20301;-72
2022/10/18 09:58:50;;;;;;;8.10;5.67;;;20.50;99.90;;;;;;10393382;28;20259;-72
2022/10/18 10:03:52;;;;;;;8.53;5.80;;;21.20;99.90;;;;;;10394581;28;20258;-72
2022/10/18 10:09:06;;;;;;;9.63;5.97;;;22.20;99.90;;;;;;10400237;28;20599;-71
2022/10/18 10:14:21;;;;;;;6.70;4.67;;;23.70;99.90;;;;;;10387010;28;20296;-71
2022/10/18 10:19:27;;;;;;;5.87;5.00;;;23.80;99.90;;;;;;10391105;28;20220;-72
2022/10/18 10:24:53;;;;;;;5.70;4.10;;;23.30;99.90;;;;;;10412003;28;20224;-72
2022/10/18 10:30:00;;;;;;;7.37;4.40;;;22.90;99.90;;;;;;10385709;28;20239;-72
2022/10/18 10:35:00;;;;;;;3.43;2.90;;;22.60;99.90;;;;;;10391817;28;20235;-72
2022/10/18 10:40:23;;;;;;;4.40;3.00;;;22.40;99.90;;;;;;10407614;28;20212;-71
2022/10/18 10:45:26;;;;;;;4.33;2.80;;;22.30;99.90;;;;;;10425593;28;20226;-72
2022/10/18 10:50:28;;;;;;;3.03;2.50;;;22.40;99.90;;;;;;10396502;28;20301;-72
2022/10/18 10:55:33;;;;;;;5.57;2.87;;;22.50;99.90;;;;;;10387258;28;20224;-71
2022/10/18 11:00:45;;;;;;;4.30;2.83;;;22.60;99.90;;;;;;10387815;28;20212;-72
2022/10/18 11:05:52;;;;;;;6.30;2.37;;;22.40;99.90;;;;;;10385819;28;20569;-71
2022/10/18 11:11:12;;;;;;;2.87;2.30;;;22.10;99.90;;;;;;10398387;28;20246;-72
2022/10/18 11:16:23;;;;;;;2.97;2.03;;;21.80;99.90;;;;;;10391245;28;20219;-73
2022/10/18 11:21:27;;;;;;;2.80;2.17;;;21.60;99.90;;;;;;10386177;28;20231;-72
2022/10/18 11:26:59;;;;;;;3.20;1.70;;;21.60;99.90;;;;;;10388071;28;20219;-72
2022/10/18 11:32:05;;;;;;;4.20;1.60;;;21.30;99.90;;;;;;10390090;28;20318;-72
2022/10/18 11:37:27;;;;;;;2.73;1.50;;;21.00;99.90;;;;;;10383641;28;20222;-72
2022/10/18 11:43:05;;;;;;;2.90;1.67;;;20.90;99.90;;;;;;10386553;28;20220;-71
2022/10/18 11:48:39;;;;;;;1.50;1.17;;;21.00;99.90;;;;;;10382958;28;20232;-72
2022/10/18 11:53:56;;;;;;;3.30;1.10;;;21.10;99.90;;;;;;10397645;28;20223;-72
2022/10/18 11:59:14;;;;;;;1.60;1.23;;;21.30;99.90;;;;;;10391069;28;20239;-73
2022/10/18 12:04:16;;;;;;;4.53;1.27;;;21.30;99.90;;;;;;10384293;28;20249;-72
2022/10/18 12:09:26;;;;;;;1.60;0.90;;;21.70;99.90;;;;;;10386146;28;20260;-72
2022/10/18 12:14:36;;;;;;;0.80;0.80;;;22.10;99.90;;;;;;10384977;28;20832;-71
2022/10/18 12:19:38;;;;;;;2.50;0.80;;;22.70;99.90;;;;;;10385130;28;20708;-72
2022/10/18 12:24:42;;;;;;;1.83;0.80;;;22.90;99.90;;;;;;10389979;28;20227;-73
2022/10/18 12:29:51;;;;;;;0.70;0.60;;;23.00;99.90;;;;;;10390496;28;20231;-72
2022/10/18 12:35:00;;;;;;;0.70;0.70;;;23.00;99.90;;;;;;10388177;28;20246;-71
2022/10/18 12:40:22;;;;;;;1.60;1.17;;;23.20;99.90;;;;;;10381661;28;20227;-72
2022/10/18 12:45:33;;;;;;;2.63;0.90;;;22.80;99.90;;;;;;10427833;28;20313;-72
2022/10/18 12:50:39;;;;;;;2.37;0.70;;;22.60;99.90;;;;;;10393288;28;20251;-72
2022/10/18 12:55:50;;;;;;;1.73;0.80;;;22.50;99.90;;;;;;10385583;28;20222;-72
2022/10/18 13:00:52;;;;;;;1.30;0.67;;;22.70;99.90;;;;;;10389346;28;20694;-73
2022/10/18 13:05:57;;;;;;;0.60;0.57;;;23.00;99.90;;;;;;10381472;28;20224;-71
2022/10/18 13:11:06;;;;;;;4.03;1.13;;;23.20;99.90;;;;;;10391641;28;20223;-71
2022/10/18 13:16:41;;;;;;;0.80;0.40;;;23.10;99.90;;;;;;10381295;28;20291;-72
2022/10/18 13:22:22;;;;;;;1.63;0.80;;;22.90;99.90;;;;;;10387792;28;20250;-72
2022/10/18 13:27:32;;;;;;;0.40;0.40;;;22.70;99.90;;;;;;10390721;28;20214;-71
2022/10/18 13:32:54;;;;;;;1.33;0.60;;;22.50;99.90;;;;;;10391170;28;20262;-71
2022/10/18 13:37:58;;;;;;;1.17;0.50;;;22.40;99.90;;;;;;10392767;28;20273;-72
2022/10/18 13:43:38;;;;;;;1.23;0.70;;;22.30;99.90;;;;;;10392223;28;20303;-72
2022/10/18 13:48:38;;;;;;;3.03;0.60;;;22.40;99.90;;;;;;10399400;28;20357;-72
2022/10/18 13:53:59;;;;;;;4.07;0.83;;;22.40;99.90;;;;;;10389110;28;20308;-72
2022/10/18 13:59:27;;;;;;;0.70;0.70;;;22.20;99.90;;;;;;10393204;28;20234;-72
2022/10/18 14:04:53;;;;;;;1.83;0.53;;;22.10;99.90;;;;;;10390238;28;20256;-73
2022/10/18 14:09:57;;;;;;;1.87;0.93;;;21.60;99.90;;;;;;10400049;28;20318;-72
2022/10/18 14:15:24;;;;;;;1.63;0.83;;;21.20;99.90;;;;;;10387010;28;20306;-71
2022/10/18 14:20:41;;;;;;;1.63;0.90;;;20.70;99.90;;;;;;10409471;28;20303;-71
2022/10/18 14:25:42;;;;;;;8.23;1.53;;;20.40;99.90;;;;;;10388661;28;20216;-72
2022/10/18 14:30:53;;;;;;;1.97;1.00;;;20.30;99.90;;;;;;10392836;28;20449;-72
2022/10/18 14:36:02;;;;;;;1.43;1.10;;;20.20;99.90;;;;;;10391797;28;20244;-71
2022/10/18 14:41:24;;;;;;;3.33;1.50;;;20.10;99.90;;;;;;10400373;28;20564;-71
2022/10/18 14:46:26;;;;;;;3.13;1.30;;;20.10;99.90;;;;;;10396992;28;20878;-72
2022/10/18 14:51:32;;;;;;;1.73;1.00;;;20.20;99.90;;;;;;10386782;28;20237;-72
2022/10/18 14:56:38;;;;;;;4.83;1.80;;;20.20;99.90;;;;;;10388515;28;20222;-72
2022/10/18 15:01:39;;;;;;;3.30;1.30;;;20.10;99.90;;;;;;10388927;28;20760;-71
2022/10/18 15:06:43;;;;;;;3.07;1.43;;;20.10;99.90;;;;;;10386151;28;20230;-72
2022/10/18 15:11:44;;;;;;;4.20;1.30;;;20.10;99.90;;;;;;10391492;28;20234;-72
2022/10/18 15:16:46;;;;;;;4.97;2.57;;;20.00;99.90;;;;;;10398382;28;20918;-72
2022/10/18 15:22:04;;;;;;;3.30;1.50;;;19.90;99.90;;;;;;10384295;28;20229;-72
2022/10/18 15:27:23;;;;;;;7.03;1.60;;;19.80;99.90;;;;;;10382215;28;20316;-72
2022/10/18 15:32:29;;;;;;;5.57;1.77;;;19.70;99.90;;;;;;10384868;28;20275;-71
2022/10/18 15:37:35;;;;;;;2.63;1.40;;;19.70;99.90;;;;;;10387271;28;20317;-71
2022/10/18 15:42:37;;;;;;;4.70;1.80;;;19.50;99.90;;;;;;10386014;28;20227;-71
2022/10/18 15:47:37;;;;;;;6.07;2.40;;;19.40;99.90;;;;;;10412309;28;20229;-71
2022/10/18 15:52:41;;;;;;;2.10;1.60;;;19.40;99.90;;;;;;10386364;28;20233;-71
2022/10/18 15:57:41;;;;;;;6.33;4.27;;;19.30;99.90;;;;;;10395951;28;20221;-71
2022/10/18 16:02:42;;;;;;;6.00;3.60;;;19.30;99.90;;;;;;10401093;28;20605;-70
2022/10/18 16:07:43;;;;;;;4.10;2.50;;;19.20;99.90;;;;;;10390289;28;20707;-70
2022/10/18 16:12:43;;;;;;;4.20;1.13;;;19.00;99.90;;;;;;10389610;28;20236;-70
2022/10/18 16:17:48;;;;;;;1.80;1.37;;;18.90;99.90;;;;;;10395273;28;20217;-69
2022/10/18 16:22:49;;;;;;;2.43;1.20;;;18.90;99.90;;;;;;10390301;28;20228;-69
2022/10/18 16:27:49;;;;;;;4.93;2.50;;;18.80;99.90;;;;;;10391285;28;20594;-71
2022/10/18 16:32:50;;;;;;;3.13;2.13;;;18.80;99.90;;;;;;10405151;28;20680;-71
2022/10/18 16:37:50;;;;;;;2.00;1.80;;;18.70;99.90;;;;;;10396798;28;20248;-70
2022/10/18 16:42:51;;;;;;;3.60;1.50;;;18.60;99.90;;;;;;10391910;28;20224;-72
2022/10/18 16:47:52;;;;;;;3.83;1.50;;;18.60;99.90;;;;;;10392541;28;20798;-71
2022/10/18 16:52:52;;;;;;;4.17;1.60;;;18.60;99.90;;;;;;10390798;28;20229;-71
2022/10/18 16:57:53;;;;;;;2.33;2.00;;;18.50;99.90;;;;;;10397596;28;20600;-71
2022/10/18 17:02:53;;;;;;;2.87;1.57;;;18.40;99.90;;;;;;10393895;28;20304;-72
2022/10/18 17:07:54;;;;;;;2.77;1.70;;;18.40;99.90;;;;;;10396120;28;20221;-72
2022/10/18 17:12:57;;;;;;;3.40;1.37;;;18.20;99.90;;;;;;10404411;28;20252;-72
2022/10/18 17:18:02;;;;;;;3.87;1.60;;;18.20;99.90;;;;;;10418811;28;20224;-71
2022/10/18 17:23:03;;;;;;;1.90;1.80;;;18.20;99.90;;;;;;10405659;28;20222;-71
2022/10/18 17:28:05;;;;;;;3.20;2.33;;;18.10;99.90;;;;;;10402986;28;20711;-72
2022/10/18 17:33:06;;;;;;;4.77;2.10;;;18.10;99.90;;;;;;10395841;28;20267;-71
2022/10/18 17:38:06;;;;;;;2.23;1.93;;;18.10;99.90;;;;;;10397894;28;20233;-71
2022/10/18 17:43:09;;;;;;;3.77;2.00;;;18.10;99.90;;;;;;10388158;28;20225;-70
2022/10/18 17:48:09;;;;;;;3.27;2.17;;;18.10;99.90;;;;;;10435189;28;20560;-71
2022/10/18 17:53:11;;;;;;;5.40;3.33;;;18.10;99.90;;;;;;10428968;28;20226;-71
2022/10/18 17:58:12;;;;;;;7.73;4.03;;;18.10;99.90;;;;;;10414427;28;20225;-71
2022/10/18 18:03:12;;;;;;;4.47;3.30;;;18.10;99.90;;;;;;10396250;28;20598;-71
2022/10/18 18:08:14;;;;;;;4.93;3.50;;;18.10;99.90;;;;;;10396923;28;20604;-71
2022/10/18 18:13:14;;;;;;;4.37;3.30;;;18.10;99.90;;;;;;10386506;28;20884;-72
2022/10/18 18:18:15;;;;;;;7.23;3.03;;;18.10;99.90;;;;;;10401283;28;20251;-71
2022/10/18 18:23:16;;;;;;;4.13;2.77;;;18.00;99.90;;;;;;10395967;28;20910;-71
2022/10/18 18:28:16;;;;;;;4.07;3.30;;;17.80;99.90;;;;;;10399380;28;20221;-71
2022/10/18 18:33:17;;;;;;;7.63;3.33;;;17.60;99.90;;;;;;10395603;28;20220;-71
2022/10/18 18:38:17;;;;;;;9.70;3.43;;;17.40;99.90;;;;;;10395827;28;20254;-70
2022/10/18 18:43:19;;;;;;;4.20;3.80;;;17.20;99.90;;;;;;10391311;28;20757;-71
2022/10/18 18:48:19;;;;;;;9.03;3.83;;;17.10;99.90;;;;;;10428715;28;20600;-71
2022/10/18 18:53:20;;;;;;;8.20;3.20;;;17.10;99.90;;;;;;10407281;28;20241;-71
2022/10/18 18:58:21;;;;;;;5.90;3.17;;;17.00;99.90;;;;;;10405007;28;20633;-71
2022/10/18 19:03:21;;;;;;;8.17;3.80;;;16.90;99.90;;;;;;10409049;28;20244;-71
2022/10/18 19:08:22;;;;;;;10.53;3.17;;;16.80;99.90;;;;;;10400410;28;20263;-70
2022/10/18 19:13:22;;;;;;;6.97;3.60;;;16.60;99.90;;;;;;10418999;28;20241;-71
2022/10/18 19:18:23;;;;;;;7.10;3.67;;;16.50;99.90;;;;;;10417781;28;20728;-71
2022/10/18 19:23:24;;;;;;;6.83;3.20;;;16.40;99.90;;;;;;10407093;28;20269;-71
2022/10/18 19:28:24;;;;;;;2.87;2.50;;;16.20;99.90;;;;;;10392043;28;20631;-71
2022/10/18 19:33:25;;;;;;;4.43;2.57;;;16.10;99.90;;;;;;10396369;28;20233;-69
2022/10/18 19:38:26;;;;;;;5.10;2.50;;;16.00;99.90;;;;;;10396398;28;20463;-71
2022/10/18 19:43:26;;;;;;;7.73;2.83;;;15.90;99.90;;;;;;10388959;28;20352;-71
2022/10/18 19:48:27;;;;;;;8.70;2.90;;;15.80;99.90;;;;;;10390645;28;20692;-71
2022/10/18 19:53:31;;;;;;;4.90;2.73;;;15.80;99.90;;;;;;10392840;28;20615;-72
2022/10/18 19:58:32;;;;;;;10.33;3.53;;;15.80;99.90;;;;;;10392875;28;20233;-71
2022/10/18 20:03:33;;;;;;;8.87;3.97;;;15.80;99.90;;;;;;10387248;28;20228;-71
2022/10/18 20:08:34;;;;;;;9.47;4.20;;;15.90;99.90;;;;;;10389486;28;20224;-72
2022/10/18 20:13:35;;;;;;;9.17;3.87;;;15.90;99.90;;;;;;10394563;28;20236;-71
2022/10/18 20:18:41;;;;;;;7.73;3.27;;;15.80;99.90;;;;;;10394297;28;20227;-70
2022/10/18 20:23:43;;;;;;;7.70;3.70;;;15.70;99.90;;;;;;10388785;28;20216;-72
2022/10/18 20:28:45;;;;;;;8.47;4.10;;;15.60;99.90;;;;;;10394469;28;20231;-71
2022/10/18 20:33:46;;;;;;;5.73;3.50;;;15.50;99.90;;;;;;10403355;28;20445;-71
2022/10/18 20:38:50;;;;;;;5.03;3.13;;;15.40;99.90;;;;;;10409109;28;20751;-71
2022/10/18 20:43:56;;;;;;;7.23;3.60;;;15.30;99.90;;;;;;10395632;28;20220;-71
2022/10/18 20:48:57;;;;;;;4.67;3.63;;;15.20;99.90;;;;;;10404358;28;20227;-73
2022/10/18 20:53:59;;;;;;;10.60;3.87;;;15.20;99.90;;;;;;10404765;28;20221;-69
2022/10/18 20:59:00;;;;;;;8.97;3.27;;;15.20;99.90;;;;;;10397406;28;20270;-73
2022/10/18 21:04:04;;;;;;;8.00;3.27;;;15.10;99.90;;;;;;10400166;28;20649;-72
2022/10/18 21:09:13;;;;;;;5.50;3.37;;;15.00;99.90;;;;;;10405492;28;20219;-71
2022/10/18 21:14:17;;;;;;;5.50;3.53;;;14.90;99.90;;;;;;10399733;28;20248;-72
2022/10/18 21:19:23;;;;;;;8.13;4.30;;;14.80;99.90;;;;;;10395361;28;20224;-72
2022/10/18 21:24:25;;;;;;;8.37;4.20;;;14.80;99.90;;;;;;10388508;28;20259;-70
2022/10/18 21:29:26;;;;;;;8.53;5.03;;;14.70;99.90;;;;;;10390949;28;20238;-72
2022/10/18 21:34:26;;;;;;;15.33;5.57;;;14.70;99.90;;;;;;10403510;28;20801;-71
2022/10/18 21:39:28;;;;;;;7.20;5.73;;;14.80;99.90;;;;;;10410173;28;20220;-72
2022/10/18 21:44:29;;;;;;;7.93;5.00;;;14.90;99.90;;;;;;10396595;28;20664;-70
2022/10/18 21:49:33;;;;;;;8.83;5.60;;;14.80;99.90;;;;;;10403642;28;20225;-70
2022/10/18 21:54:34;;;;;;;6.07;4.43;;;14.80;99.90;;;;;;10406611;28;20303;-70
2022/10/18 21:59:34;;;;;;;8.23;4.67;;;14.70;99.90;;;;;;10392821;28;20389;-70
2022/10/18 22:04:35;;;;;;;8.77;4.73;;;14.70;99.90;;;;;;10422120;28;20695;-70
2022/10/18 22:09:36;;;;;;;10.93;5.57;;;14.60;99.90;;;;;;10409324;28;20315;-70
2022/10/18 22:14:37;;;;;;;7.73;5.00;;;14.50;99.90;;;;;;10404964;28;20276;-71
2022/10/18 22:19:37;;;;;;;10.23;5.70;;;14.40;99.90;;;;;;10438062;28;20710;-72
2022/10/18 22:24:38;;;;;;;11.97;6.23;;;14.40;99.90;;;;;;10440488;28;20235;-72
2022/10/18 22:29:38;;;;;;;11.77;7.13;;;14.50;99.90;;;;;;10402646;28;20224;-73
2022/10/18 22:34:39;;;;;;;13.33;6.60;;;14.50;99.90;;;;;;10403467;28;20234;-72
2022/10/18 22:39:40;;;;;;;8.63;7.57;;;14.50;99.90;;;;;;10423516;28;20306;-71
2022/10/18 22:44:40;;;;;;;16.77;7.90;;;14.50;99.90;;;;;;10432720;28;20271;-72
2022/10/18 22:49:43;;;;;;;12.93;7.50;;;14.50;99.90;;;;;;10398526;28;20695;-70
2022/10/18 22:54:44;;;;;;;16.67;8.97;;;14.40;99.90;;;;;;10392060;28;20244;-70
2022/10/18 22:59:45;;;;;;;15.67;9.13;;;14.40;99.90;;;;;;10398803;28;20793;-71
2022/10/18 23:04:45;;;;;;;14.20;10.03;;;14.40;99.90;;;;;;10403861;28;20255;-71
2022/10/18 23:09:46;;;;;;;21.00;9.97;;;14.30;99.90;;;;;;10405373;28;20235;-71
2022/10/18 23:14:46;;;;;;;16.37;10.17;;;14.30;99.90;;;;;;10403388;28;20227;-72
2022/10/18 23:19:47;;;;;;;14.90;11.33;;;14.30;99.90;;;;;;10395653;28;20276;-69
2022/10/18 23:24:47;;;;;;;13.13;8.73;;;14.20;99.90;;;;;;10403291;28;20250;-70
2022/10/18 23:29:48;;;;;;;14.10;9.90;;;14.10;99.90;;;;;;10402268;28;20703;-69
2022/10/18 23:34:48;;;;;;;18.73;12.30;;;14.10;99.90;;;;;;10393173;28;20243;-71
2022/10/18 23:39:49;;;;;;;18.07;12.20;;;14.00;99.90;;;;;;10398462;28;20223;-72
2022/10/18 23:44:50;;;;;;;21.67;13.97;;;14.00;99.90;;;;;;10439225;28;20750;-71
2022/10/18 23:49:52;;;;;;;24.40;13.60;;;14.00;99.90;;;;;;10401218;28;20605;-71
2022/10/18 23:54:52;;;;;;;25.73;17.50;;;14.20;99.90;;;;;;10440641;28;20251;-72
2022/10/18 23:59:53;;;;;;;27.73;18.67;;;14.40;99.90;;;;;;10440335;28;20239;-72
